createdAt,value
2023-11-01T00:01:46.210Z,0.70
2023-11-01T00:04:12.608Z,0.60
2023-11-01T00:06:38.935Z,1.00
2023-11-01T00:09:05.255Z,0.70
2023-11-01T00:11:31.654Z,0.60
2023-11-01T00:13:58.015Z,0.73
2023-11-01T00:16:24.356Z,0.60
2023-11-01T00:18:50.643Z,0.50
2023-11-01T00:21:16.948Z,0.80
2023-11-01T00:23:43.248Z,0.60
2023-11-01T00:26:09.687Z,0.80
2023-11-01T00:28:36.013Z,0.77
2023-11-01T00:31:02.419Z,0.70
2023-11-01T00:33:28.814Z,0.60
2023-11-01T00:35:55.147Z,0.43
2023-11-01T00:38:25.049Z,0.70
2023-11-01T00:40:51.621Z,0.67
2023-11-01T00:43:17.891Z,0.60
2023-11-01T00:45:44.233Z,0.97
2023-11-01T00:48:10.525Z,0.70
2023-11-01T00:50:36.998Z,0.73
2023-11-01T00:53:03.318Z,0.70
2023-11-01T00:55:29.596Z,0.80
2023-11-01T00:57:55.898Z,0.70
2023-11-01T01:00:22.196Z,0.80
2023-11-01T01:02:48.677Z,0.70
2023-11-01T01:05:15.445Z,0.80
2023-11-01T01:07:41.810Z,0.90
2023-11-01T01:10:09.086Z,0.70
2023-11-01T01:12:35.446Z,0.90
2023-11-01T01:15:02.438Z,0.70
2023-11-01T01:17:28.813Z,1.00
2023-11-01T01:19:55.167Z,0.97
2023-11-01T01:22:22.881Z,1.00
2023-11-01T01:24:49.203Z,1.10
2023-11-01T01:27:15.488Z,0.80
2023-11-01T01:29:41.855Z,0.90
2023-11-01T01:32:08.248Z,0.87
2023-11-01T01:34:34.546Z,0.90
2023-11-01T01:37:00.932Z,0.83
2023-11-01T01:39:27.254Z,0.80
2023-11-01T01:41:53.531Z,0.77
2023-11-01T01:44:19.858Z,0.80
2023-11-01T01:46:46.275Z,1.00
2023-11-01T01:49:13.443Z,1.00
2023-11-01T01:51:39.817Z,0.90
2023-11-01T01:54:06.275Z,1.13
2023-11-01T01:56:32.716Z,0.80
2023-11-01T01:58:59.492Z,1.10
2023-11-01T02:01:35.512Z,1.03
2023-11-01T02:04:08.885Z,0.87
2023-11-01T02:06:35.176Z,1.10
2023-11-01T02:09:01.589Z,0.90
2023-11-01T02:11:28.020Z,0.77
2023-11-01T02:13:54.312Z,0.90
2023-11-01T02:16:20.631Z,0.93
2023-11-01T02:18:46.952Z,1.00
2023-11-01T02:21:13.244Z,0.80
2023-11-01T02:23:40.482Z,1.00
2023-11-01T02:26:08.541Z,0.80
2023-11-01T02:28:34.800Z,0.90
2023-11-01T02:31:01.856Z,0.80
2023-11-01T02:33:28.220Z,0.80
2023-11-01T02:35:54.511Z,0.77
2023-11-01T02:38:20.821Z,0.90
2023-11-01T02:40:47.267Z,0.67
2023-11-01T02:43:13.617Z,0.67
2023-11-01T02:45:39.949Z,0.67
2023-11-01T02:48:06.420Z,0.90
2023-11-01T02:50:32.753Z,0.93
2023-11-01T02:52:59.101Z,0.97
2023-11-01T02:55:25.527Z,1.03
2023-11-01T02:57:51.941Z,1.00
2023-11-01T03:00:21.619Z,1.00
2023-11-01T03:02:48.976Z,1.00
2023-11-01T03:05:15.717Z,1.10
2023-11-01T03:07:42.405Z,0.90
2023-11-01T03:10:09.736Z,1.13
2023-11-01T03:12:36.240Z,0.80
2023-11-01T03:15:02.563Z,0.67
2023-11-01T03:17:29.390Z,0.93
2023-11-01T03:19:55.712Z,1.13
2023-11-01T03:22:24.257Z,0.97
2023-11-01T03:24:50.583Z,0.90
2023-11-01T03:27:16.871Z,0.93
2023-11-01T03:29:43.260Z,1.00
2023-11-01T03:32:09.946Z,1.20
2023-11-01T03:34:36.294Z,0.70
2023-11-01T03:37:02.581Z,0.97
2023-11-01T03:39:28.871Z,0.90
2023-11-01T03:41:55.728Z,0.90
2023-11-01T03:44:22.034Z,1.00
2023-11-01T03:46:48.384Z,1.00
2023-11-01T03:49:14.685Z,1.10
2023-11-01T03:51:40.963Z,0.90
2023-11-01T03:54:07.248Z,0.97
2023-11-01T03:56:33.590Z,0.87
2023-11-01T03:58:59.972Z,1.00
2023-11-01T04:01:26.332Z,1.03
2023-11-01T04:03:52.820Z,0.90
2023-11-01T04:06:19.140Z,0.83
2023-11-01T04:08:45.502Z,0.90
2023-11-01T04:11:11.910Z,0.93
2023-11-01T04:13:38.237Z,0.97
2023-11-01T04:16:04.718Z,0.73
2023-11-01T04:18:31.074Z,1.10
2023-11-01T04:20:57.362Z,1.10
2023-11-01T04:23:23.944Z,1.30
2023-11-01T04:25:50.275Z,0.80
2023-11-01T04:28:16.580Z,1.17
2023-11-01T04:30:42.866Z,0.90
2023-11-01T04:33:09.440Z,1.20
2023-11-01T04:35:35.955Z,0.90
2023-11-01T04:38:02.704Z,1.00
2023-11-01T04:40:29.143Z,1.00
2023-11-01T04:42:55.424Z,0.97
2023-11-01T04:45:21.740Z,0.97
2023-11-01T04:47:48.178Z,1.13
2023-11-01T04:50:15.433Z,1.33
2023-11-01T04:52:42.548Z,1.23
2023-11-01T04:55:09.735Z,1.43
2023-11-01T04:57:36.047Z,1.27
2023-11-01T05:00:02.458Z,1.40
2023-11-01T05:02:28.834Z,1.30
2023-11-01T05:04:55.250Z,1.43
2023-11-01T05:07:21.523Z,1.33
2023-11-01T05:09:53.472Z,1.23
2023-11-01T05:12:19.762Z,1.40
2023-11-01T05:14:46.084Z,1.50
2023-11-01T05:17:12.599Z,1.40
2023-11-01T05:19:38.875Z,1.27
2023-11-01T05:22:05.171Z,1.20
2023-11-01T05:24:31.464Z,1.00
2023-11-01T05:26:57.793Z,1.20
2023-11-01T05:29:24.738Z,0.93
2023-11-01T05:31:51.037Z,1.00
2023-11-01T05:34:17.311Z,1.10
2023-11-01T05:36:43.614Z,0.97
2023-11-01T05:39:09.920Z,1.40
2023-11-01T05:41:37.503Z,1.10
2023-11-01T05:44:03.938Z,1.30
2023-11-01T05:46:30.757Z,1.10
2023-11-01T05:48:57.106Z,1.50
2023-11-01T05:51:23.473Z,1.30
2023-11-01T05:53:49.826Z,1.30
2023-11-01T05:56:16.530Z,1.00
2023-11-01T05:58:44.040Z,1.30
2023-11-01T06:01:10.325Z,1.20
2023-11-01T06:03:36.803Z,1.37
2023-11-01T06:06:03.247Z,1.50
2023-11-01T06:08:29.640Z,1.10
2023-11-01T06:10:56.090Z,1.40
2023-11-01T06:13:22.553Z,1.40
2023-11-01T06:15:51.107Z,1.43
2023-11-01T06:18:18.970Z,1.50
2023-11-01T06:20:45.531Z,2.00
2023-11-01T06:23:11.905Z,1.23
2023-11-01T06:25:38.959Z,1.73
2023-11-01T06:28:05.316Z,1.20
2023-11-01T06:30:31.641Z,1.83
2023-11-01T06:32:58.200Z,1.27
2023-11-01T06:35:24.850Z,1.30
2023-11-01T06:37:51.204Z,1.70
2023-11-01T06:40:17.604Z,1.20
2023-11-01T06:42:43.930Z,1.10
2023-11-01T06:45:11.835Z,2.07
2023-11-01T06:47:38.325Z,1.47
2023-11-01T06:50:04.882Z,1.43
2023-11-01T06:52:31.202Z,1.60
2023-11-01T06:54:57.473Z,1.17
2023-11-01T06:57:23.890Z,1.30
2023-11-01T06:59:50.230Z,1.13
2023-11-01T07:02:16.555Z,1.10
2023-11-01T07:04:42.855Z,1.60
2023-11-01T07:07:12.181Z,1.20
2023-11-01T07:09:40.057Z,1.37
2023-11-01T07:12:06.532Z,1.50
2023-11-01T07:14:32.897Z,1.30
2023-11-01T07:16:59.199Z,1.30
2023-11-01T07:19:25.481Z,1.60
2023-11-01T07:21:51.793Z,1.60
2023-11-01T07:24:18.105Z,1.50
2023-11-01T07:26:44.476Z,1.70
2023-11-01T07:29:10.819Z,1.50
2023-11-01T07:31:37.127Z,1.60
2023-11-01T07:34:03.489Z,1.40
2023-11-01T07:36:29.819Z,1.90
2023-11-01T07:38:56.155Z,1.50
2023-11-01T07:41:22.562Z,1.80
2023-11-01T07:43:48.886Z,1.50
2023-11-01T07:46:15.200Z,2.03
2023-11-01T07:48:41.637Z,2.10
2023-11-01T07:51:08.394Z,1.77
2023-11-01T07:53:35.934Z,1.57
2023-11-01T07:56:02.618Z,1.60
2023-11-01T07:58:30.439Z,1.70
2023-11-01T08:00:56.870Z,1.93
2023-11-01T08:03:25.222Z,1.80
2023-11-01T08:05:51.905Z,1.90
2023-11-01T08:08:18.597Z,1.63
2023-11-01T08:10:44.933Z,2.00
2023-11-01T08:13:11.947Z,1.70
2023-11-01T08:15:39.540Z,1.73
2023-11-01T08:18:05.878Z,2.20
2023-11-01T08:20:32.237Z,1.73
2023-11-01T08:22:58.526Z,1.83
2023-11-01T08:25:24.950Z,1.67
2023-11-01T08:27:51.309Z,1.73
2023-11-01T08:30:18.561Z,1.70
2023-11-01T08:32:45.103Z,1.70
2023-11-01T08:35:11.571Z,1.70
2023-11-01T08:37:38.236Z,2.07
2023-11-01T08:40:05.165Z,1.73
2023-11-01T08:42:31.501Z,1.80
2023-11-01T08:44:58.366Z,1.60
2023-11-01T08:47:34.122Z,1.80
2023-11-01T08:50:01.145Z,1.50
2023-11-01T08:52:27.679Z,1.80
2023-11-01T08:54:53.931Z,2.00
2023-11-01T08:57:23.468Z,1.70
2023-11-01T08:59:51.443Z,2.03
2023-11-01T09:02:18.975Z,2.00
2023-11-01T09:04:45.551Z,1.67
2023-11-01T09:07:11.896Z,1.90
2023-11-01T09:09:38.481Z,2.17
2023-11-01T09:12:05.007Z,1.90
2023-11-01T09:14:31.543Z,1.80
2023-11-01T09:16:57.936Z,1.80
2023-11-01T09:19:24.261Z,2.13
2023-11-01T09:21:50.563Z,1.87
2023-11-01T09:24:16.944Z,2.03
2023-11-01T09:26:44.140Z,1.70
2023-11-01T09:29:11.526Z,2.00
2023-11-01T09:31:37.861Z,2.10
2023-11-01T09:34:04.338Z,2.00
2023-11-01T09:36:30.840Z,2.30
2023-11-01T09:38:57.226Z,1.90
2023-11-01T09:41:29.053Z,1.90
2023-11-01T09:44:00.576Z,2.00
2023-11-01T09:46:27.455Z,1.90
2023-11-01T09:48:55.490Z,1.63
2023-11-01T09:51:25.653Z,2.10
2023-11-01T09:53:52.014Z,1.60
2023-11-01T09:56:19.817Z,1.60
2023-11-01T09:58:46.274Z,1.40
2023-11-01T10:01:12.912Z,2.30
2023-11-01T10:03:39.600Z,1.73
2023-11-01T10:06:08.829Z,1.70
2023-11-01T10:08:35.213Z,1.80
2023-11-01T10:11:01.887Z,1.83
2023-11-01T10:13:31.313Z,1.20
2023-11-01T10:15:58.761Z,1.50
2023-11-01T10:18:25.145Z,1.60
2023-11-01T10:20:51.571Z,1.70
2023-11-01T10:23:21.045Z,1.57
2023-11-01T10:25:47.774Z,1.90
2023-11-01T10:28:14.142Z,1.83
2023-11-01T10:30:45.099Z,1.53
2023-11-01T10:33:12.168Z,1.80
2023-11-01T10:35:38.770Z,2.00
2023-11-01T10:38:05.367Z,1.53
2023-11-01T10:40:32.243Z,1.90
2023-11-01T10:42:59.810Z,1.93
2023-11-01T10:45:26.243Z,2.57
2023-11-01T10:47:53.295Z,2.10
2023-11-01T10:50:20.272Z,2.60
2023-11-01T10:52:48.072Z,3.07
2023-11-01T10:55:17.654Z,2.87
2023-11-01T10:57:44.011Z,2.37
2023-11-01T11:00:31.673Z,2.10
2023-11-01T11:02:59.802Z,2.20
2023-11-01T11:05:27.765Z,2.00
2023-11-01T11:07:55.267Z,2.17
2023-11-01T11:10:25.046Z,2.20
2023-11-01T11:13:19.123Z,2.10
2023-11-01T11:15:49.011Z,1.80
2023-11-01T11:18:17.513Z,1.70
2023-11-01T11:20:43.898Z,1.50
2023-11-01T11:23:10.953Z,1.73
2023-11-01T11:26:00.606Z,1.80
2023-11-01T11:28:29.939Z,1.60
2023-11-01T11:31:07.026Z,2.80
2023-11-01T11:33:37.474Z,2.27
2023-11-01T11:36:09.887Z,3.20
2023-11-01T11:38:36.843Z,4.13
2023-11-01T11:41:17.068Z,2.70
2023-11-01T11:44:01.943Z,2.63
2023-11-01T11:46:29.425Z,3.27
2023-11-01T11:48:56.412Z,3.40
2023-11-01T11:51:22.695Z,3.20
2023-11-01T11:53:49.275Z,3.13
2023-11-01T11:56:19.414Z,2.90
2023-11-01T11:58:46.163Z,2.10
2023-11-01T12:01:23.167Z,1.73
2023-11-01T12:03:49.623Z,1.63
2023-11-01T12:06:16.780Z,1.53
2023-11-01T12:08:43.145Z,1.47
2023-11-01T12:11:10.223Z,1.67
2023-11-01T12:13:54.340Z,1.40
2023-11-01T12:16:39.464Z,1.30
2023-11-01T12:19:12.382Z,1.27
2023-11-01T12:21:42.317Z,1.20
2023-11-01T12:24:10.746Z,1.10
2023-11-01T12:26:55.578Z,1.27
2023-11-01T12:29:21.931Z,1.40
2023-11-01T12:32:04.814Z,1.57
2023-11-01T12:34:34.400Z,2.07
2023-11-01T12:37:14.279Z,1.60
2023-11-01T12:39:40.644Z,1.40
2023-11-01T12:42:26.409Z,1.30
2023-11-01T12:44:53.527Z,1.30
2023-11-01T12:47:20.758Z,1.50
2023-11-01T12:49:47.369Z,1.60
2023-11-01T12:52:13.701Z,1.70
2023-11-01T12:54:46.120Z,1.97
2023-11-01T12:57:15.687Z,2.40
2023-11-01T12:59:42.414Z,2.40
2023-11-01T13:02:08.707Z,2.63
2023-11-01T13:04:35.043Z,2.07
2023-11-01T13:07:01.647Z,1.70
2023-11-01T13:09:28.135Z,1.67
2023-11-01T13:11:54.513Z,1.83
2023-11-01T13:14:21.359Z,1.40
2023-11-01T13:16:47.738Z,1.60
2023-11-01T13:19:14.250Z,1.53
2023-11-01T13:21:41.089Z,2.47
2023-11-01T13:24:10.334Z,2.20
2023-11-01T13:26:36.763Z,2.63
2023-11-01T13:29:03.170Z,2.90
2023-11-01T13:31:29.485Z,2.60
2023-11-01T13:33:55.800Z,2.60
2023-11-01T13:36:22.300Z,2.70
2023-11-01T13:38:48.591Z,2.40
2023-11-01T13:41:15.167Z,2.27
2023-11-01T13:43:41.433Z,2.30
2023-11-01T13:46:07.763Z,2.10
2023-11-01T13:48:34.268Z,2.10
2023-11-01T13:51:01.492Z,2.13
2023-11-01T13:53:27.844Z,2.17
2023-11-01T13:55:54.124Z,2.07
2023-11-01T13:58:20.471Z,1.93
2023-11-01T14:00:47.917Z,1.60
2023-11-01T14:03:14.711Z,1.60
2023-11-01T14:05:41.949Z,1.70
2023-11-01T14:08:11.396Z,1.77
2023-11-01T14:10:38.591Z,1.90
2023-11-01T14:13:05.766Z,1.30
2023-11-01T14:15:32.405Z,1.40
2023-11-01T14:18:01.874Z,3.10
2023-11-01T14:20:28.781Z,3.67
2023-11-01T14:22:55.583Z,4.23
2023-11-01T14:25:22.109Z,4.13
2023-11-01T14:27:50.288Z,3.57
2023-11-01T14:30:17.728Z,3.03
2023-11-01T14:32:44.414Z,3.40
2023-11-01T14:35:11.502Z,3.27
2023-11-01T14:37:41.497Z,3.13
2023-11-01T14:40:08.348Z,4.73
2023-11-01T14:42:35.683Z,4.60
2023-11-01T14:45:02.141Z,4.70
2023-11-01T14:47:28.474Z,4.20
2023-11-01T14:49:54.784Z,4.27
2023-11-01T14:52:21.163Z,3.30
2023-11-01T14:54:47.477Z,3.17
2023-11-01T14:57:13.805Z,2.70
2023-11-01T14:59:40.426Z,2.43
2023-11-01T15:02:06.762Z,1.77
2023-11-01T15:04:33.083Z,1.37
2023-11-01T15:06:59.395Z,1.50
2023-11-01T15:09:25.997Z,1.30
2023-11-01T15:11:52.391Z,1.33
2023-11-01T15:14:18.963Z,1.50
2023-11-01T15:16:45.371Z,1.60
2023-11-01T15:19:12.198Z,1.60
2023-11-01T15:21:38.996Z,1.40
2023-11-01T15:24:06.304Z,1.47
2023-11-01T15:26:35.065Z,1.40
2023-11-01T15:29:01.799Z,1.70
2023-11-01T15:31:28.126Z,1.53
2023-11-01T15:33:54.475Z,1.40
2023-11-01T15:36:20.811Z,1.80
2023-11-01T15:38:47.162Z,1.43
2023-11-01T15:41:14.381Z,1.23
2023-11-01T15:43:40.887Z,1.50
2023-11-01T15:46:07.258Z,1.50
2023-11-01T15:48:33.708Z,1.40
2023-11-01T15:51:02.303Z,1.30
2023-11-01T15:53:31.409Z,1.40
2023-11-01T15:55:57.752Z,1.50
2023-11-01T15:58:24.038Z,1.40
2023-11-01T16:00:50.564Z,1.60
2023-11-01T16:03:17.016Z,1.80
2023-11-01T16:05:43.412Z,1.53
2023-11-01T16:08:09.722Z,1.67
2023-11-01T16:10:36.025Z,2.43
2023-11-01T16:13:02.331Z,2.40
2023-11-01T16:15:28.783Z,2.30
2023-11-01T16:17:55.124Z,2.33
2023-11-01T16:20:21.464Z,2.07
2023-11-01T16:22:47.730Z,1.97
2023-11-01T16:25:14.304Z,2.30
2023-11-01T16:27:41.443Z,2.77
2023-11-01T16:30:08.128Z,2.10
2023-11-01T16:32:37.120Z,2.10
2023-11-01T16:35:05.869Z,2.10
2023-11-01T16:37:32.463Z,1.80
2023-11-01T16:39:58.959Z,2.00
2023-11-01T16:42:25.227Z,1.80
2023-11-01T16:44:51.567Z,2.03
2023-11-01T16:47:18.114Z,2.10
2023-11-01T16:49:49.485Z,1.97
2023-11-01T16:52:15.886Z,1.97
2023-11-01T16:54:42.149Z,2.00
2023-11-01T16:57:08.479Z,1.97
2023-11-01T16:59:34.776Z,2.10
2023-11-01T17:02:01.089Z,1.97
2023-11-01T17:04:28.421Z,2.60
2023-11-01T17:06:54.868Z,3.03
2023-11-01T17:09:21.152Z,3.10
2023-11-01T17:11:47.498Z,3.40
2023-11-01T17:14:13.807Z,3.13
2023-11-01T17:16:40.125Z,2.30
2023-11-01T17:19:06.510Z,2.70
2023-11-01T17:21:32.894Z,2.60
2023-11-01T17:23:59.272Z,2.63
2023-11-01T17:26:26.731Z,2.23
2023-11-01T17:28:54.048Z,2.60
2023-11-01T17:31:40.537Z,2.43
2023-11-01T17:34:07.560Z,2.47
2023-11-01T17:36:35.103Z,2.23
2023-11-01T17:39:02.624Z,2.40
2023-11-01T17:41:47.884Z,2.40
2023-11-01T17:44:14.197Z,2.50
2023-11-01T17:46:40.490Z,2.70
2023-11-01T17:49:06.898Z,2.60
2023-11-01T17:51:34.406Z,2.60
2023-11-01T17:54:04.174Z,2.60
2023-11-01T17:56:30.871Z,3.07
2023-11-01T17:58:57.983Z,2.77
2023-11-01T18:01:32.147Z,2.90
2023-11-01T18:03:58.622Z,2.80
2023-11-01T18:06:25.540Z,3.10
2023-11-01T18:08:52.038Z,3.00
2023-11-01T18:11:19.522Z,2.83
2023-11-01T18:13:46.167Z,3.40
2023-11-01T18:16:13.361Z,2.77
2023-11-01T18:18:43.941Z,2.77
2023-11-01T18:21:10.401Z,3.47
2023-11-01T18:23:37.174Z,3.40
2023-11-01T18:26:06.703Z,2.97
2023-11-01T18:28:34.778Z,3.00
2023-11-01T18:31:02.180Z,2.70
2023-11-01T18:33:28.499Z,3.00
2023-11-01T18:35:54.857Z,2.80
2023-11-01T18:38:36.463Z,2.70
2023-11-01T18:41:03.874Z,2.73
2023-11-01T18:43:30.145Z,2.80
2023-11-01T18:45:56.436Z,2.80
2023-11-01T18:48:22.820Z,2.70
2023-11-01T18:50:49.133Z,2.80
2023-11-01T18:53:20.209Z,3.20
2023-11-01T18:55:46.619Z,3.13
2023-11-01T18:58:12.897Z,3.60
2023-11-01T19:00:39.538Z,3.80
2023-11-01T19:03:12.341Z,2.70
2023-11-01T19:05:39.661Z,3.30
2023-11-01T19:08:05.984Z,2.80
2023-11-01T19:10:35.519Z,2.60
2023-11-01T19:13:02.163Z,3.07
2023-11-01T19:15:41.112Z,3.03
2023-11-01T19:18:13.979Z,3.30
2023-11-01T19:20:41.396Z,3.33
2023-11-01T19:23:07.887Z,3.03
2023-11-01T19:25:34.202Z,3.33
2023-11-01T19:28:00.476Z,4.70
2023-11-01T19:30:26.793Z,3.00
2023-11-01T19:32:53.155Z,3.00
2023-11-01T19:35:19.476Z,3.00
2023-11-01T19:37:45.750Z,3.30
2023-11-01T19:40:12.112Z,3.03
2023-11-01T19:42:38.375Z,3.03
2023-11-01T19:45:05.146Z,3.20
2023-11-01T19:47:32.046Z,3.50
2023-11-01T19:49:58.817Z,3.20
2023-11-01T19:52:25.784Z,3.03
2023-11-01T19:54:52.154Z,3.30
2023-11-01T19:57:18.693Z,3.07
2023-11-01T19:59:47.262Z,2.97
2023-11-01T20:02:14.390Z,2.90
2023-11-01T20:04:41.760Z,2.73
2023-11-01T20:07:08.753Z,3.43
2023-11-01T20:09:35.301Z,3.10
2023-11-01T20:12:01.598Z,3.07
2023-11-01T20:14:27.996Z,3.23
2023-11-01T20:16:54.272Z,2.47
2023-11-01T20:19:20.692Z,2.43
2023-11-01T20:21:47.489Z,2.90
2023-11-01T20:24:14.105Z,2.73
2023-11-01T20:26:41.348Z,2.87
2023-11-01T20:29:07.861Z,2.90
2023-11-01T20:31:34.559Z,3.10
2023-11-01T20:34:01.041Z,3.07
2023-11-01T20:36:27.358Z,2.93
2023-11-01T20:38:53.677Z,2.93
2023-11-01T20:41:20.248Z,3.10
2023-11-01T20:43:46.540Z,2.70
2023-11-01T20:46:12.889Z,3.63
2023-11-01T20:48:39.266Z,3.23
2023-11-01T20:51:11.296Z,3.10
2023-11-01T20:53:39.405Z,3.00
2023-11-01T20:56:06.985Z,3.00
2023-11-01T20:58:33.240Z,3.20
2023-11-01T21:01:00.530Z,3.33
2023-11-01T21:03:27.697Z,3.03
2023-11-01T21:05:54.228Z,3.10
2023-11-01T21:08:20.549Z,3.40
2023-11-01T21:10:46.919Z,3.57
2023-11-01T21:13:13.209Z,3.10
2023-11-01T21:15:39.681Z,3.70
2023-11-01T21:18:06.080Z,3.27
2023-11-01T21:20:32.918Z,3.07
2023-11-01T21:23:00.561Z,3.20
2023-11-01T21:25:28.588Z,3.17
2023-11-01T21:27:59.271Z,3.07
2023-11-01T21:30:25.989Z,3.10
2023-11-01T21:32:53.066Z,3.13
2023-11-01T21:35:28.909Z,3.20
2023-11-01T21:38:03.838Z,3.20
2023-11-01T21:40:34.888Z,3.47
2023-11-01T21:43:01.565Z,3.00
2023-11-01T21:45:44.345Z,2.80
2023-11-01T21:48:10.792Z,3.10
2023-11-01T21:50:48.675Z,3.40
2023-11-01T21:53:14.979Z,3.13
2023-11-01T21:55:55.003Z,3.50
2023-11-01T21:58:25.940Z,3.13
2023-11-01T22:01:00.295Z,2.80
2023-11-01T22:03:41.621Z,3.03
2023-11-01T22:06:18.520Z,2.87
2023-11-01T22:08:54.109Z,3.10
2023-11-01T22:11:20.507Z,3.20
2023-11-01T22:13:46.782Z,3.43
2023-11-01T22:16:24.294Z,3.33
2023-11-01T22:18:52.920Z,3.27
2023-11-01T22:21:19.345Z,3.23
2023-11-01T22:23:47.471Z,3.20
2023-11-01T22:26:19.928Z,3.20
2023-11-01T22:28:46.420Z,2.97
2023-11-01T22:31:18.162Z,3.00
2023-11-01T22:33:44.702Z,3.00
2023-11-01T22:36:17.726Z,3.27
2023-11-01T22:38:44.011Z,2.80
2023-11-01T22:41:11.235Z,3.17
2023-11-01T22:43:37.503Z,2.70
2023-11-01T22:46:03.933Z,3.00
2023-11-01T22:48:31.049Z,2.70
2023-11-01T22:50:57.721Z,3.13
2023-11-01T22:53:26.882Z,3.20
2023-11-01T22:55:53.778Z,3.10
2023-11-01T22:58:20.095Z,3.20
2023-11-01T23:00:46.362Z,2.83
2023-11-01T23:03:13.381Z,2.40
2023-11-01T23:05:40.412Z,2.97
2023-11-01T23:08:06.724Z,2.70
2023-11-01T23:10:38.873Z,2.53
2023-11-01T23:13:05.463Z,2.57
2023-11-01T23:15:31.762Z,2.40
2023-11-01T23:17:58.838Z,2.53
2023-11-01T23:20:25.378Z,2.40
2023-11-01T23:22:52.836Z,2.80
2023-11-01T23:25:32.132Z,2.33
2023-11-01T23:28:02.050Z,3.13
2023-11-01T23:31:01.240Z,2.50
2023-11-01T23:33:47.941Z,2.27
2023-11-01T23:36:19.889Z,2.43
2023-11-01T23:38:54.444Z,2.43
2023-11-01T23:41:22.900Z,2.53
2023-11-01T23:43:50.323Z,2.50
2023-11-01T23:46:20.505Z,2.27
2023-11-01T23:48:49.169Z,2.40
2023-11-01T23:51:35.487Z,2.47
2023-11-01T23:54:02.058Z,2.43
2023-11-01T23:56:30.855Z,2.50
2023-11-01T23:58:57.151Z,2.50
